createdAt,value
2022-12-23T00:01:22.827Z,9.38
2022-12-23T00:03:49.750Z,10.65
2022-12-23T00:06:18.480Z,9.77
2022-12-23T00:08:46.656Z,11.57
2022-12-23T00:11:19.039Z,10.88
2022-12-23T00:14:04.946Z,12.00
2022-12-23T00:16:32.109Z,11.82
2022-12-23T00:18:59.009Z,10.57
2022-12-23T00:21:25.846Z,12.50
2022-12-23T00:23:52.778Z,9.75
2022-12-23T00:26:27.675Z,10.35
2022-12-23T00:28:57.697Z,10.02
2022-12-23T00:31:24.967Z,10.32
2022-12-23T00:33:53.516Z,10.75
2022-12-23T00:36:27.745Z,8.13
2022-12-23T00:41:58.599Z,9.25
2022-12-23T00:44:25.577Z,10.40
2022-12-23T00:46:52.469Z,7.28
2022-12-23T00:49:46.389Z,10.05
2022-12-23T00:52:15.546Z,8.25
2022-12-23T00:54:42.590Z,8.18
2022-12-23T00:57:09.464Z,8.23
2022-12-23T00:59:36.354Z,8.05
2022-12-23T01:02:21.957Z,8.88
2022-12-23T01:05:07.428Z,8.68
2022-12-23T01:07:34.351Z,8.25
2022-12-23T01:10:01.224Z,8.20
2022-12-23T01:12:28.095Z,8.20
2022-12-23T01:14:55.012Z,7.72
2022-12-23T01:17:22.041Z,7.18
2022-12-23T01:19:49.055Z,7.40
2022-12-23T01:22:15.902Z,7.20
2022-12-23T01:24:42.679Z,7.82
2022-12-23T01:27:09.464Z,6.70
2022-12-23T01:29:36.291Z,7.05
2022-12-23T01:32:03.415Z,7.28
2022-12-23T01:34:36.419Z,7.10
2022-12-23T01:37:04.255Z,8.70
2022-12-23T01:39:31.144Z,7.35
2022-12-23T01:42:16.498Z,6.72
2022-12-23T01:45:01.560Z,7.40
2022-12-23T01:47:52.944Z,7.53
2022-12-23T01:50:39.776Z,8.77
2022-12-23T01:53:20.699Z,7.75
2022-12-23T01:55:59.563Z,7.70
2022-12-23T01:58:35.118Z,7.57
2022-12-23T02:01:21.056Z,8.43
2022-12-23T02:03:50.275Z,7.55
2022-12-23T02:06:40.548Z,7.43
2022-12-23T02:09:23.221Z,7.85
2022-12-23T02:12:09.046Z,7.72
2022-12-23T02:15:03.483Z,7.82
2022-12-23T02:17:58.339Z,8.88
2022-12-23T02:20:54.506Z,8.85
2022-12-23T02:23:33.438Z,8.85
2022-12-23T02:26:34.132Z,9.25
2022-12-23T02:29:28.996Z,9.20
2022-12-23T02:32:08.596Z,8.73
2022-12-23T02:34:44.361Z,9.43
2022-12-23T02:37:14.395Z,8.13
2022-12-23T02:40:19.712Z,9.25
2022-12-23T02:42:50.423Z,8.80
2022-12-23T02:45:33.183Z,10.43
2022-12-23T02:48:10.010Z,9.38
2022-12-23T02:50:40.370Z,9.05
2022-12-23T02:53:24.410Z,9.00
2022-12-23T02:55:53.289Z,9.07
2022-12-23T02:58:24.912Z,8.60
2022-12-23T03:00:52.600Z,8.20
2022-12-23T03:03:21.230Z,8.50
2022-12-23T03:05:50.170Z,8.68
2022-12-23T03:08:30.332Z,6.95
2022-12-23T03:11:07.842Z,8.05
2022-12-23T03:13:55.753Z,7.93
2022-12-23T03:16:24.226Z,8.07
2022-12-23T03:19:06.144Z,7.25
2022-12-23T03:22:00.112Z,7.00
2022-12-23T03:24:53.498Z,7.32
2022-12-23T03:27:28.053Z,6.60
2022-12-23T03:30:05.911Z,7.45
2022-12-23T03:32:55.099Z,6.60
2022-12-23T03:35:29.854Z,7.00
2022-12-23T03:37:58.226Z,6.75
2022-12-23T03:40:27.373Z,6.38
2022-12-23T03:43:04.118Z,6.38
2022-12-23T03:45:39.849Z,7.22
2022-12-23T03:48:17.728Z,4.75
2022-12-23T03:50:47.214Z,6.03
2022-12-23T03:53:20.658Z,5.68
2022-12-23T03:55:56.654Z,5.72
2022-12-23T03:58:36.550Z,6.47
2022-12-23T04:01:18.149Z,5.68
2022-12-23T04:04:11.199Z,5.82
2022-12-23T04:06:59.315Z,5.80
2022-12-23T04:09:28.247Z,5.75
2022-12-23T04:11:56.697Z,5.55
2022-12-23T04:14:23.685Z,6.22
2022-12-23T04:16:55.292Z,6.75
2022-12-23T04:19:22.427Z,6.53
2022-12-23T04:21:49.286Z,6.28
2022-12-23T04:24:16.158Z,6.75
2022-12-23T04:26:43.102Z,7.00
2022-12-23T04:29:09.978Z,7.72
2022-12-23T04:31:36.837Z,7.70
2022-12-23T04:34:03.725Z,7.43
2022-12-23T04:36:30.711Z,7.30
2022-12-23T04:38:57.523Z,6.95
2022-12-23T04:41:24.357Z,7.22
2022-12-23T04:43:53.323Z,6.72
2022-12-23T04:46:20.626Z,5.32
2022-12-23T04:48:47.623Z,5.75
2022-12-23T04:51:14.665Z,6.00
2022-12-23T04:53:41.541Z,6.72
2022-12-23T04:56:08.404Z,6.90
2022-12-23T04:58:35.315Z,5.65
2022-12-23T05:01:04.073Z,6.82
2022-12-23T05:03:31.208Z,6.95
2022-12-23T05:05:58.161Z,6.57
2022-12-23T05:08:25.244Z,6.55
2022-12-23T05:10:52.264Z,6.32
2022-12-23T05:13:19.130Z,6.82
2022-12-23T05:15:48.814Z,5.75
2022-12-23T05:18:15.800Z,5.80
2022-12-23T05:20:42.990Z,5.97
2022-12-23T05:23:10.328Z,6.60
2022-12-23T05:25:38.708Z,5.95
2022-12-23T05:28:06.666Z,6.43
2022-12-23T05:30:33.548Z,5.90
2022-12-23T05:33:00.376Z,5.97
2022-12-23T05:35:28.218Z,5.50
2022-12-23T05:37:55.082Z,5.50
2022-12-23T05:40:23.903Z,5.88
2022-12-23T05:42:52.240Z,5.65
2022-12-23T05:45:19.141Z,5.25
2022-12-23T05:47:48.943Z,5.50
2022-12-23T05:50:22.552Z,5.03
2022-12-23T05:52:49.375Z,4.95
2022-12-23T05:55:17.455Z,4.15
2022-12-23T05:57:44.276Z,4.43
2022-12-23T06:00:11.504Z,5.70
2022-12-23T06:02:38.586Z,5.22
2022-12-23T06:05:06.064Z,4.82
2022-12-23T06:07:32.989Z,4.97
2022-12-23T06:09:59.785Z,4.78
2022-12-23T06:12:26.565Z,4.10
2022-12-23T06:14:54.027Z,5.20
2022-12-23T06:17:20.834Z,4.70
2022-12-23T06:19:47.675Z,4.07
2022-12-23T06:22:17.853Z,4.40
2022-12-23T06:24:45.068Z,4.85
2022-12-23T06:27:11.910Z,4.32
2022-12-23T06:29:38.710Z,5.18
2022-12-23T06:32:06.050Z,4.50
2022-12-23T06:34:33.355Z,4.30
2022-12-23T06:37:00.301Z,4.72
2022-12-23T06:39:29.125Z,4.57
2022-12-23T06:41:55.943Z,5.13
2022-12-23T06:44:22.817Z,5.50
2022-12-23T06:46:49.867Z,5.28
2022-12-23T06:49:16.682Z,4.72
2022-12-23T06:51:43.505Z,5.13
2022-12-23T06:54:14.323Z,4.60
2022-12-23T06:56:41.172Z,5.47
2022-12-23T06:59:08.045Z,5.68
2022-12-23T07:01:34.900Z,5.70
2022-12-23T07:04:03.046Z,4.68
2022-12-23T07:06:29.886Z,4.22
2022-12-23T07:08:56.977Z,4.30
2022-12-23T07:11:23.777Z,5.40
2022-12-23T07:13:50.698Z,5.30
2022-12-23T07:16:17.552Z,4.57
2022-12-23T07:18:44.516Z,5.68
2022-12-23T07:21:21.377Z,5.45
2022-12-23T07:23:53.549Z,5.55
2022-12-23T07:26:20.811Z,6.32
2022-12-23T07:28:48.790Z,5.45
2022-12-23T07:31:16.210Z,6.05
2022-12-23T07:33:43.477Z,5.07
2022-12-23T07:36:10.534Z,4.80
2022-12-23T07:38:37.475Z,5.63
2022-12-23T07:41:04.415Z,4.88
2022-12-23T07:43:31.306Z,5.25
2022-12-23T07:46:01.272Z,4.47
2022-12-23T07:48:28.178Z,4.90
2022-12-23T07:51:03.962Z,5.30
2022-12-23T07:53:31.104Z,4.45
2022-12-23T07:55:58.372Z,4.47
2022-12-23T07:58:25.549Z,4.07
2022-12-23T08:01:02.768Z,4.55
2022-12-23T08:03:30.217Z,5.28
2022-12-23T08:06:16.268Z,5.68
2022-12-23T08:08:45.047Z,4.57
2022-12-23T08:11:13.633Z,5.45
2022-12-23T08:13:42.796Z,4.43
2022-12-23T08:16:10.777Z,4.53
2022-12-23T08:18:39.654Z,4.53
2022-12-23T08:21:10.402Z,3.70
2022-12-23T08:23:37.265Z,5.38
2022-12-23T08:26:07.772Z,4.30
2022-12-23T08:28:35.356Z,5.32
2022-12-23T08:31:09.903Z,4.43
2022-12-23T08:33:38.343Z,4.90
2022-12-23T08:36:07.843Z,3.85
2022-12-23T08:38:36.085Z,5.65
2022-12-23T08:41:08.190Z,5.05
2022-12-23T08:43:36.102Z,4.65
2022-12-23T08:46:03.964Z,5.03
2022-12-23T08:48:31.719Z,3.88
2022-12-23T08:51:06.422Z,5.30
2022-12-23T08:53:34.583Z,4.25
2022-12-23T08:56:10.831Z,6.30
2022-12-23T08:58:40.125Z,4.88
2022-12-23T09:01:09.496Z,5.78
2022-12-23T09:03:37.124Z,5.18
2022-12-23T09:06:09.876Z,6.03
2022-12-23T09:08:36.760Z,6.13
2022-12-23T09:11:04.137Z,5.90
2022-12-23T09:13:35.498Z,6.32
2022-12-23T09:16:03.698Z,5.40
2022-12-23T09:18:30.618Z,5.47
2022-12-23T09:21:03.178Z,4.97
2022-12-23T09:23:30.056Z,5.60
2022-12-23T09:25:56.848Z,5.95
2022-12-23T09:28:24.659Z,5.82
2022-12-23T09:30:52.285Z,6.13
2022-12-23T09:33:19.840Z,6.18
2022-12-23T09:35:46.689Z,4.85
2022-12-23T09:38:13.563Z,4.75
2022-12-23T09:40:42.011Z,5.05
2022-12-23T09:44:00.365Z,6.45
2022-12-23T09:46:30.348Z,4.93
2022-12-23T09:49:02.676Z,5.35
2022-12-23T09:51:30.715Z,5.72
2022-12-23T09:54:38.117Z,5.35
2022-12-23T09:57:26.537Z,5.78
2022-12-23T10:00:13.840Z,5.78
2022-12-23T10:03:05.754Z,4.38
2022-12-23T10:05:50.882Z,5.60
2022-12-23T10:08:34.679Z,7.38
2022-12-23T10:11:26.457Z,6.90
2022-12-23T10:14:02.995Z,6.57
2022-12-23T10:16:35.375Z,6.95
2022-12-23T10:19:07.229Z,5.85
2022-12-23T10:21:47.281Z,5.15
2022-12-23T10:24:26.285Z,5.80
2022-12-23T10:26:54.351Z,6.72
2022-12-23T10:29:23.787Z,5.80
2022-12-23T10:32:13.415Z,5.25
2022-12-23T10:34:49.100Z,5.15
2022-12-23T10:37:31.832Z,5.72
2022-12-23T10:40:10.038Z,5.50
2022-12-23T10:43:01.042Z,5.13
2022-12-23T10:45:48.266Z,4.75
2022-12-23T10:48:27.174Z,4.95
2022-12-23T10:50:54.042Z,5.13
2022-12-23T10:53:27.798Z,3.78
2022-12-23T10:55:56.328Z,4.88
2022-12-23T10:58:23.580Z,4.75
2022-12-23T11:00:59.721Z,5.82
2022-12-23T11:03:50.495Z,5.28
2022-12-23T11:06:17.843Z,5.43
2022-12-23T11:08:45.263Z,5.57
2022-12-23T11:11:12.091Z,6.13
2022-12-23T11:13:42.230Z,4.90
2022-12-23T11:16:27.761Z,5.93
2022-12-23T11:18:59.415Z,5.18
2022-12-23T11:21:27.511Z,7.72
2022-12-23T11:24:16.308Z,7.65
2022-12-23T11:26:45.005Z,6.15
2022-12-23T11:29:28.092Z,6.43
2022-12-23T11:31:56.252Z,6.30
2022-12-23T11:34:25.474Z,7.00
2022-12-23T11:37:03.382Z,5.97
2022-12-23T11:39:35.253Z,5.47
2022-12-23T11:42:12.460Z,4.95
2022-12-23T11:44:43.915Z,5.80
2022-12-23T11:47:26.384Z,5.70
2022-12-23T11:49:56.677Z,5.10
2022-12-23T11:52:29.123Z,5.03
2022-12-23T11:55:07.027Z,5.35
2022-12-23T11:57:45.709Z,5.13
2022-12-23T12:00:21.197Z,5.50
2022-12-23T12:02:54.943Z,5.47
2022-12-23T12:05:33.935Z,5.05
2022-12-23T12:08:03.240Z,5.38
2022-12-23T12:10:33.746Z,5.13
2022-12-23T12:13:18.609Z,5.70
2022-12-23T12:16:02.343Z,5.13
2022-12-23T12:18:29.863Z,5.20
2022-12-23T12:21:05.913Z,5.05
2022-12-23T12:23:47.041Z,5.20
2022-12-23T12:26:22.399Z,4.80
2022-12-23T12:28:55.262Z,5.05
2022-12-23T12:31:42.425Z,4.78
2022-12-23T12:34:28.123Z,4.40
2022-12-23T12:37:20.064Z,4.13
2022-12-23T12:40:01.842Z,4.18
2022-12-23T12:42:53.296Z,4.30
2022-12-23T12:45:39.617Z,3.70
2022-12-23T12:48:44.912Z,4.03
2022-12-23T12:51:28.296Z,4.20
2022-12-23T12:54:06.453Z,5.22
2022-12-23T12:56:41.551Z,4.93
2022-12-23T12:59:20.254Z,4.10
2022-12-23T13:02:08.610Z,5.20
2022-12-23T13:04:52.470Z,4.70
2022-12-23T13:07:43.587Z,5.25
2022-12-23T13:10:23.782Z,5.65
2022-12-23T13:13:04.248Z,4.25
2022-12-23T13:16:00.265Z,6.75
2022-12-23T13:18:59.216Z,5.80
2022-12-23T13:21:49.517Z,7.13
2022-12-23T13:24:46.397Z,6.70
2022-12-23T13:27:27.474Z,7.40
2022-12-23T13:30:20.285Z,7.18
2022-12-23T13:32:50.201Z,5.90
2022-12-23T13:35:23.238Z,6.82
2022-12-23T13:38:06.009Z,8.75
2022-12-23T13:41:03.763Z,7.80
2022-12-23T13:43:42.377Z,7.25
2022-12-23T13:46:21.047Z,8.13
2022-12-23T13:49:06.675Z,7.47
2022-12-23T13:51:40.905Z,9.38
2022-12-23T13:54:56.362Z,7.53
2022-12-23T13:58:03.352Z,8.27
2022-12-23T14:00:32.698Z,7.10
2022-12-23T14:03:02.755Z,8.90
2022-12-23T14:05:39.476Z,7.63
2022-12-23T14:08:20.896Z,6.80
2022-12-23T14:11:14.841Z,6.55
2022-12-23T14:13:45.909Z,6.50
2022-12-23T14:16:55.438Z,6.95
2022-12-23T14:19:35.979Z,6.38
2022-12-23T14:22:24.551Z,6.05
2022-12-23T14:25:16.061Z,7.28
2022-12-23T14:28:20.086Z,6.07
2022-12-23T14:30:47.083Z,6.95
2022-12-23T14:33:25.381Z,6.18
2022-12-23T14:35:56.702Z,6.45
2022-12-23T14:38:26.888Z,6.35
2022-12-23T14:41:15.344Z,5.90
2022-12-23T14:43:45.195Z,4.97
2022-12-23T14:46:33.818Z,5.20
2022-12-23T14:49:29.878Z,6.05
2022-12-23T14:51:51.001Z,5.32
2022-12-23T14:54:38.276Z,5.78
2022-12-23T14:57:17.471Z,5.50
2022-12-23T15:00:02.073Z,5.55
2022-12-23T15:02:37.141Z,5.75
2022-12-23T15:05:04.968Z,4.80
2022-12-23T15:07:41.357Z,6.03
2022-12-23T23:22:27.335Z,3.97
2022-12-23T23:24:54.163Z,4.75
2022-12-23T23:27:21.792Z,4.18
2022-12-23T23:29:48.618Z,5.05
2022-12-23T23:32:15.508Z,4.07
2022-12-23T23:34:42.478Z,4.30
2022-12-23T23:37:09.382Z,5.25
2022-12-23T23:39:36.169Z,4.68
2022-12-23T23:42:03.067Z,6.00
2022-12-23T23:44:29.865Z,6.00
2022-12-23T23:46:56.720Z,5.60
2022-12-23T23:49:23.715Z,5.40
2022-12-23T23:51:50.637Z,4.97
2022-12-23T23:54:17.602Z,5.80
2022-12-23T23:56:44.536Z,6.45
2022-12-23T23:59:11.493Z,7.03
